Aérodrome :
LOGIN :

S'inscrire | Disclaimer

   EN    FR    IT 

 










Légende :    VFR   VFR Marginal   IFR   IFR Intensif   IFR Très Intensif
Visi : 
Plafond : 
>= 8 km
>= 3000ft
5 à 8 km
1000 à 3000 ft
1500m à 5 km
500 à 1000 ft
800 à 1500m
200 à 500 ft
< 800m
< 200 ft
Symboles :   Orages  Brouillard  Fortes neiges  Fortes précipitations  Vent > 20 kt
SIGMETs :   Divers  Orages  Givrage  Turbulence  Onde Orograph.  Cendres Volcan.






- Altitude de l'aérodrome : 42 ft
- Code IATA : KGD


UMKK - Khrabrava - Kaliningrad

DERNIER METAR :
  • 300700Z 20002MPS 160V220 9999 BKN021CB 01/M02 Q1022 R24/19//95 NOSIG RMK QFE765/1020

METARs EXPIRÉS :
  • 300630Z 16002MPS 130V190 9999 BKN018CB 00/M03 Q1021 R24/490195 NOSIG RMK QFE765/1020
  • 300600Z 18002MPS 150V220 9999 SCT019CB 00/M03 Q1021 R24/490195 NOSIG RMK QFE765/1020
  • 300530Z 18002MPS 9999 SCT030CB M01/M03 Q1021 R06/490195 NOSIG RMK QFE765/1020
  • 300500Z 21003MPS 9999 SCT025CB M01/M03 Q1021 R06/490195 NOSIG RMK QFE765/1020
  • 300430Z VRB01MPS 9999 BKN021CB M02/M04 Q1021 R06/19//95 NOSIG RMK QFE765/1020

TAF TAF UMKK
Valide du 30 à 06h jusqu'au 31 à 06h UTC


300456Z 3006/3106 26003G08MPS 9999 BKN011 SCT020CB
TEMPO 3006/3010 32008MPS 0500 +SHSNRA SCT004 BKN013CB
FM301000 33005G10MPS 4000 -SNRA BKN011
TEMPO 3010/3101 02008G15MPS 0500 +SHSNGS BKN003 BKN013CB
BECMG 3101/3103 VRB01MPS



MET'MAP, la Météo Aéronautique d'un coup d'oeil ! - Copyright ORBIFLY Décembre 2007 - Disclaimer

ORBIFLY MET'MAP TEAM :

Programmation & Développement : Alexandra Zaïnal
Sur une idée originale de : Baudouin d'Aumeries
Assistance à la programmation : Marc-Olivier Méhu
Soutien technique & logistique : Manuel Goepfert

Contact : metmap@orbifly.com




SOURCES & CREDITS :

   NOAA